createdAt,value
2018-02-19T00:01:25.362Z,62.88
2018-02-19T00:03:52.799Z,59.53
2018-02-19T00:06:20.243Z,58.83
2018-02-19T00:08:47.693Z,58.13
2018-02-19T00:11:15.139Z,60.80
2018-02-19T00:13:42.591Z,61.53
2018-02-19T00:16:10.038Z,61.35
2018-02-19T00:18:38.246Z,59.05
2018-02-19T00:21:05.691Z,53.92
2018-02-19T00:23:33.127Z,59.10
2018-02-19T00:26:00.580Z,57.25
2018-02-19T00:28:28.025Z,56.50
2018-02-19T00:30:56.970Z,59.77
2018-02-19T00:33:25.179Z,58.80
2018-02-19T00:35:52.619Z,64.60
2018-02-19T00:38:20.060Z,59.22
2018-02-19T00:40:47.508Z,54.92
2018-02-19T00:43:15.720Z,50.75
2018-02-19T00:45:43.159Z,54.97
2018-02-19T00:48:10.611Z,56.55
2018-02-19T00:50:38.060Z,55.35
2018-02-19T00:53:05.507Z,53.83
2018-02-19T00:55:32.953Z,55.28
2018-02-19T00:58:00.394Z,54.92
2018-02-19T01:00:28.608Z,53.20
2018-02-19T01:02:56.085Z,47.17
2018-02-19T01:05:23.529Z,56.58
2018-02-19T01:07:50.969Z,50.60
2018-02-19T01:10:18.412Z,55.63
2018-02-19T01:12:46.620Z,55.92
2018-02-19T01:15:14.837Z,56.60
2018-02-19T01:17:42.288Z,52.95
2018-02-19T01:20:10.506Z,58.38
2018-02-19T01:22:37.957Z,48.95
2018-02-19T01:25:05.416Z,49.42
2018-02-19T01:27:32.858Z,51.15
2018-02-19T01:30:00.307Z,47.50
2018-02-19T01:32:28.536Z,50.00
2018-02-19T01:34:55.985Z,45.25
2018-02-19T01:37:24.194Z,43.35
2018-02-19T01:39:52.421Z,44.65
2018-02-19T01:42:19.863Z,50.55
2018-02-19T01:44:47.308Z,51.43
2018-02-19T01:47:14.748Z,55.35
2018-02-19T01:52:43.644Z,53.13
2018-02-19T01:55:11.092Z,54.17
2018-02-19T01:57:38.530Z,54.08
2018-02-19T02:00:05.976Z,52.62
2018-02-19T02:02:33.425Z,58.70
2018-02-19T02:05:01.636Z,51.45
2018-02-19T02:07:29.071Z,53.47
2018-02-19T02:09:56.516Z,51.30
2018-02-19T02:12:23.976Z,49.65
2018-02-19T02:14:51.425Z,56.08
2018-02-19T02:17:18.879Z,55.22
2018-02-19T02:19:46.324Z,53.25
2018-02-19T02:22:13.785Z,47.60
2018-02-19T02:24:42.008Z,49.13
2018-02-19T02:27:09.452Z,45.00
2018-02-19T02:29:36.892Z,45.30
2018-02-19T02:32:04.340Z,51.72
2018-02-19T02:34:31.780Z,44.70
2018-02-19T02:37:00.740Z,46.95
2018-02-19T02:39:28.196Z,46.28
2018-02-19T02:41:56.412Z,49.03
2018-02-19T02:44:23.859Z,50.97
2018-02-19T02:46:51.312Z,44.45
2018-02-19T02:49:18.752Z,47.08
2018-02-19T02:51:46.213Z,42.75
2018-02-19T02:54:14.420Z,49.30
2018-02-19T02:56:42.643Z,41.92
2018-02-19T02:59:10.080Z,40.50
2018-02-19T03:01:37.541Z,46.53
2018-02-19T03:04:04.995Z,45.92
2018-02-19T03:06:32.436Z,46.63
2018-02-19T03:09:00.659Z,55.93
2018-02-19T03:11:28.099Z,40.13
2018-02-19T03:13:55.545Z,40.13
2018-02-19T03:16:22.988Z,41.97
2018-02-19T03:18:51.201Z,40.80
2018-02-19T03:21:18.648Z,36.63
2018-02-19T03:26:13.852Z,33.17
2018-02-19T03:28:41.299Z,35.30
2018-02-19T03:31:08.745Z,41.03
2018-02-19T03:33:36.195Z,39.13
2018-02-19T03:36:03.635Z,37.83
2018-02-19T03:38:31.080Z,36.67
2018-02-19T03:40:58.520Z,42.57
2018-02-19T03:43:26.732Z,37.17
2018-02-19T04:35:01.005Z,32.97
2018-02-19T04:37:28.445Z,41.20
2018-02-19T04:39:56.663Z,42.62
2018-02-19T04:42:24.112Z,36.63
2018-02-19T04:44:57.228Z,41.03
2018-02-19T04:47:24.672Z,42.78
2018-02-19T04:49:52.124Z,42.05
2018-02-19T04:52:19.563Z,58.37
2018-02-19T04:54:47.004Z,34.10
2018-02-19T04:57:14.452Z,40.60
2018-02-19T04:59:41.904Z,39.10
2018-02-19T05:02:09.361Z,48.05
2018-02-19T05:04:36.801Z,40.20
2018-02-19T05:07:04.260Z,35.20
2018-02-19T05:09:32.470Z,35.22
2018-02-19T05:12:00.684Z,34.10
2018-02-19T05:14:28.124Z,32.00
2018-02-19T05:16:55.572Z,27.52
2018-02-19T05:19:23.017Z,25.97
2018-02-19T05:21:50.472Z,28.20
2018-02-19T05:24:18.682Z,24.77
2018-02-19T05:26:46.896Z,25.47
2018-02-19T05:29:14.348Z,27.62
2018-02-19T05:31:41.804Z,27.15
2018-02-19T05:34:09.253Z,22.63
2018-02-19T05:36:36.700Z,25.90
2018-02-19T05:39:04.904Z,26.70
2018-02-19T05:41:33.119Z,28.48
2018-02-19T05:44:00.572Z,31.20
2018-02-19T05:46:28.020Z,28.92
2018-02-19T05:48:55.468Z,31.90
2018-02-19T05:51:22.922Z,28.35
2018-02-19T05:53:51.124Z,27.17
2018-02-19T05:56:19.344Z,27.13
2018-02-19T05:58:46.793Z,27.65
2018-02-19T06:01:14.236Z,24.63
2018-02-19T06:03:41.694Z,24.40
2018-02-19T06:06:09.144Z,28.02
2018-02-19T06:08:37.356Z,28.60
2018-02-19T06:11:04.815Z,24.10
2018-02-19T06:13:33.024Z,27.33
2018-02-19T06:16:01.240Z,28.50
2018-02-19T06:18:28.675Z,30.37
2018-02-19T06:20:56.124Z,28.73
2018-02-19T06:23:23.556Z,27.60
2018-02-19T06:25:51.781Z,30.08
2018-02-19T06:28:19.228Z,27.65
2018-02-19T06:30:46.679Z,27.20
2018-02-19T06:33:14.888Z,24.95
2018-02-19T06:35:42.336Z,26.70
2018-02-19T06:38:09.774Z,28.03
2018-02-19T06:40:37.228Z,25.65
2018-02-19T06:43:04.664Z,24.08
2018-02-19T06:45:32.123Z,24.08
2018-02-19T06:48:00.324Z,23.02
2018-02-19T06:50:28.539Z,22.90
2018-02-19T06:52:55.980Z,51.57
2018-02-19T06:55:23.509Z,28.90
2018-02-19T06:57:50.944Z,25.70
2018-02-19T07:00:18.404Z,26.27
2018-02-19T07:02:45.852Z,26.00
2018-02-19T07:05:13.304Z,26.37
2018-02-19T07:07:41.520Z,23.60
2018-02-19T07:10:08.964Z,28.92
2018-02-19T07:12:36.416Z,31.55
2018-02-19T07:15:03.866Z,32.33
2018-02-19T07:17:32.078Z,32.75
2018-02-19T07:19:59.520Z,35.63
2018-02-19T07:22:26.959Z,31.65
2018-02-19T07:24:54.413Z,33.08
2018-02-19T07:27:21.860Z,34.35
2018-02-19T07:29:49.304Z,31.07
2018-02-19T07:32:17.524Z,29.20
2018-02-19T07:34:44.970Z,26.80
2018-02-19T07:37:12.424Z,26.10
2018-02-19T07:39:40.652Z,28.85
2018-02-19T07:42:08.099Z,27.00
2018-02-19T07:44:35.564Z,30.60
2018-02-19T07:47:03.000Z,25.73
2018-02-19T07:49:30.441Z,27.63
2018-02-19T07:51:57.885Z,31.70
2018-02-19T07:54:25.320Z,29.92
2018-02-19T07:56:53.533Z,25.80
2018-02-19T07:59:21.756Z,23.25
2018-02-19T08:01:49.192Z,29.83
2018-02-19T08:04:16.644Z,28.58
2018-02-19T08:06:44.100Z,26.80
2018-02-19T08:09:11.540Z,34.80
2018-02-19T08:11:39.764Z,30.37
2018-02-19T08:14:07.989Z,31.98
2018-02-19T08:16:35.442Z,31.85
2018-02-19T08:19:03.648Z,29.55
2018-02-19T08:21:31.095Z,36.95
2018-02-19T08:23:58.568Z,36.50
2018-02-19T08:26:26.016Z,34.33
2018-02-19T08:28:53.468Z,34.45
2018-02-19T08:31:21.689Z,36.75
2018-02-19T08:33:49.144Z,41.37
2018-02-19T08:36:17.367Z,38.30
2018-02-19T08:38:44.804Z,34.00
2018-02-19T08:41:12.275Z,37.92
2018-02-19T08:43:39.731Z,36.33
2018-02-19T08:46:07.173Z,34.88
2018-02-19T08:48:35.384Z,35.97
2018-02-19T08:51:02.836Z,38.08
2018-02-19T08:53:31.063Z,41.17
2018-02-19T08:55:58.540Z,37.63
2018-02-19T08:58:26.748Z,40.25
2018-02-19T09:00:54.192Z,35.92
2018-02-19T09:03:22.415Z,36.77
2018-02-19T09:05:49.860Z,35.22
2018-02-19T09:08:17.366Z,35.28
2018-02-19T09:10:45.568Z,36.38
2018-02-19T09:13:13.783Z,34.25
2018-02-19T09:15:41.224Z,30.73
2018-02-19T09:18:08.697Z,34.45
2018-02-19T09:20:36.132Z,32.25
2018-02-19T09:23:03.577Z,33.93
2018-02-19T09:25:31.019Z,32.05
2018-02-19T09:27:58.494Z,29.58
2018-02-19T09:30:25.949Z,33.50
2018-02-19T09:32:54.169Z,31.60
2018-02-19T09:35:21.609Z,34.97
2018-02-19T09:37:49.064Z,30.37
2018-02-19T09:40:16.504Z,32.35
2018-02-19T09:42:43.960Z,34.88
2018-02-19T09:45:12.168Z,35.25
2018-02-19T09:47:40.380Z,31.17
2018-02-19T09:50:08.588Z,29.70
2018-02-19T09:52:36.044Z,35.83
2018-02-19T09:55:04.257Z,31.17
2018-02-19T09:57:31.716Z,33.23
2018-02-19T09:59:59.156Z,33.50
2018-02-19T10:02:26.611Z,36.53
2018-02-19T10:04:54.814Z,32.00
2018-02-19T10:07:23.053Z,33.25
2018-02-19T10:09:50.500Z,35.05
2018-02-19T10:12:18.712Z,32.60
2018-02-19T10:14:46.164Z,36.00
2018-02-19T10:17:14.380Z,37.15
2018-02-19T10:19:41.826Z,35.53
2018-02-19T10:22:09.272Z,35.17
2018-02-19T10:24:36.715Z,32.07
2018-02-19T10:27:04.936Z,37.33
2018-02-19T10:29:32.388Z,33.40
2018-02-19T10:31:59.841Z,35.13
2018-02-19T10:34:27.280Z,35.17
2018-02-19T10:36:54.721Z,39.40
2018-02-19T10:39:22.180Z,35.38
2018-02-19T10:41:49.624Z,38.90
2018-02-19T10:44:17.089Z,37.40
2018-02-19T10:46:45.292Z,42.58
2018-02-19T10:49:13.511Z,37.40
2018-02-19T10:51:40.956Z,42.23
2018-02-19T10:54:08.400Z,37.83
2018-02-19T10:56:35.840Z,37.10
2018-02-19T10:59:04.052Z,36.05
2018-02-19T11:01:32.268Z,38.45
2018-02-19T11:04:00.492Z,35.60
2018-02-19T11:06:27.930Z,35.88
2018-02-19T11:08:56.149Z,33.17
2018-02-19T11:11:23.602Z,39.35
2018-02-19T11:13:51.826Z,36.50
2018-02-19T11:16:19.275Z,34.93
2018-02-19T11:18:46.734Z,36.85
2018-02-19T11:21:14.179Z,41.08
2018-02-19T11:23:41.646Z,40.92
2018-02-19T11:26:09.096Z,41.67
2018-02-19T11:28:36.548Z,36.37
2018-02-19T11:31:04.003Z,39.80
2018-02-19T11:33:32.215Z,35.35
2018-02-19T11:35:59.685Z,36.57
2018-02-19T11:38:27.904Z,36.60
2018-02-19T11:40:55.352Z,38.13
2018-02-19T11:43:22.798Z,40.00
2018-02-19T11:45:50.248Z,41.15
2018-02-19T11:48:17.699Z,42.20
2018-02-19T11:50:45.167Z,35.33
2018-02-19T11:53:12.619Z,40.12
2018-02-19T11:55:40.079Z,40.10
2018-02-19T11:58:08.289Z,37.78
2018-02-19T12:00:35.746Z,42.08
2018-02-19T12:03:03.176Z,39.85
2018-02-19T12:05:30.630Z,40.17
2018-02-19T12:07:58.062Z,39.70
2018-02-19T12:10:25.520Z,38.47
2018-02-19T12:12:53.723Z,38.08
2018-02-19T12:15:21.949Z,40.90
2018-02-19T12:17:49.403Z,40.95
2018-02-19T12:20:16.853Z,41.85
2018-02-19T12:22:44.296Z,36.17
2018-02-19T12:25:12.519Z,36.13
2018-02-19T12:27:39.952Z,37.03
2018-02-19T12:30:07.419Z,34.72
2018-02-19T12:32:34.877Z,34.95
2018-02-19T12:35:02.327Z,36.38
2018-02-19T12:37:30.536Z,41.53
2018-02-19T12:39:58.002Z,38.40
2018-02-19T12:42:25.455Z,35.40
2018-02-19T12:44:52.912Z,38.13
2018-02-19T12:47:20.348Z,43.42
2018-02-19T12:49:47.820Z,37.67
2018-02-19T12:52:15.269Z,40.17
2018-02-19T12:54:42.721Z,40.30
2018-02-19T12:57:10.932Z,36.75
2018-02-19T12:59:38.398Z,36.72
2018-02-19T13:02:06.606Z,41.65
2018-02-19T13:04:34.828Z,41.47
2018-02-19T13:07:02.288Z,35.25
2018-02-19T13:09:30.512Z,33.83
2018-02-19T13:11:57.957Z,35.53
2018-02-19T13:14:26.179Z,35.08
2018-02-19T13:16:53.633Z,43.03
2018-02-19T13:19:21.867Z,36.00
2018-02-19T13:21:49.308Z,36.10
2018-02-19T13:24:16.756Z,38.40
2018-02-19T13:26:44.201Z,37.90
2018-02-19T13:29:12.417Z,36.00
2018-02-19T13:31:39.884Z,37.40
2018-02-19T13:34:08.099Z,39.53
2018-02-19T13:36:36.315Z,37.38
2018-02-19T13:39:03.751Z,37.30
2018-02-19T13:41:31.209Z,40.40
2018-02-19T13:43:58.664Z,35.55
2018-02-19T13:46:26.124Z,33.60
2018-02-19T13:48:54.944Z,38.97
2018-02-19T13:51:22.393Z,39.13
2018-02-19T13:53:49.838Z,38.38
2018-02-19T13:56:17.296Z,39.78
2018-02-19T13:58:44.743Z,34.72
2018-02-19T14:01:12.205Z,38.83
2018-02-19T14:03:39.658Z,36.80
2018-02-19T14:06:07.114Z,35.20
2018-02-19T14:08:35.333Z,39.63
2018-02-19T14:11:03.553Z,36.03
2018-02-19T14:13:31.001Z,33.30
2018-02-19T14:15:59.225Z,33.05
2018-02-19T14:18:26.678Z,45.10
2018-02-19T14:20:54.901Z,35.53
2018-02-19T14:23:22.353Z,36.22
2018-02-19T14:25:49.804Z,34.97
2018-02-19T14:28:17.262Z,39.03
2018-02-19T14:30:44.716Z,34.80
2018-02-19T14:33:12.180Z,36.85
2018-02-19T14:35:40.404Z,33.10
2018-02-19T14:38:07.849Z,35.83
2018-02-19T14:40:35.304Z,36.70
2018-02-19T14:43:02.761Z,37.45
2018-02-19T14:45:30.972Z,34.58
2018-02-19T14:47:58.412Z,30.47
2018-02-19T14:50:25.887Z,31.37
2018-02-19T14:52:53.326Z,34.13
2018-02-19T14:55:20.780Z,31.77
2018-02-19T14:57:49.008Z,38.22
2018-02-19T15:00:16.461Z,31.92
2018-02-19T15:02:44.665Z,35.03
2018-02-19T15:05:12.888Z,35.25
2018-02-19T15:07:40.328Z,33.83
2018-02-19T15:10:07.794Z,33.43
2018-02-19T15:12:35.240Z,42.03
2018-02-19T15:15:02.690Z,39.15
2018-02-19T15:17:30.148Z,34.22
2018-02-19T15:19:57.593Z,38.28
2018-02-19T15:22:25.062Z,43.95
2018-02-19T15:24:52.512Z,38.15
2018-02-19T15:27:19.966Z,39.78
2018-02-19T15:29:47.427Z,42.30
2018-02-19T15:32:14.872Z,41.22
2018-02-19T15:34:43.094Z,42.55
2018-02-19T15:37:10.543Z,40.25
2018-02-19T15:39:37.999Z,42.35
2018-02-19T15:42:05.460Z,41.67
2018-02-19T15:44:32.913Z,48.17
2018-02-19T15:47:01.134Z,40.10
2018-02-19T15:49:28.634Z,44.70
2018-02-19T15:51:56.044Z,38.33
2018-02-19T15:54:23.501Z,36.63
2018-02-19T15:56:50.960Z,48.90
2018-02-19T15:59:18.400Z,41.23
2018-02-19T16:01:46.632Z,38.30
2018-02-19T16:04:14.076Z,42.28
2018-02-19T16:06:42.300Z,41.57
2018-02-19T16:09:09.756Z,44.08
2018-02-19T16:11:37.992Z,43.72
2018-02-19T16:14:05.441Z,43.80
2018-02-19T16:16:33.670Z,46.30
2018-02-19T16:19:01.111Z,52.65
2018-02-19T16:21:28.577Z,52.25
2018-02-19T16:23:56.037Z,49.88
2018-02-19T16:26:23.494Z,50.25
2018-02-19T16:28:50.942Z,43.78
2018-02-19T16:31:19.180Z,47.70
2018-02-19T16:33:46.634Z,47.45
2018-02-19T16:36:14.848Z,49.05
2018-02-19T16:38:42.310Z,44.95
2018-02-19T16:41:09.761Z,49.22
2018-02-19T16:43:37.225Z,46.37
2018-02-19T16:46:05.441Z,48.72
2018-02-19T16:48:32.892Z,52.17
2018-02-19T16:51:00.352Z,48.95
2018-02-19T16:53:27.815Z,47.97
2018-02-19T16:55:56.024Z,47.45
2018-02-19T16:58:23.485Z,45.80
2018-02-19T17:00:51.727Z,44.97
2018-02-19T17:03:19.180Z,49.20
2018-02-19T17:05:46.633Z,49.17
2018-02-19T17:08:14.096Z,44.40
2018-02-19T17:10:41.557Z,43.97
2018-02-19T17:13:09.070Z,47.45
2018-02-19T17:15:36.531Z,42.20
2018-02-19T17:18:03.984Z,45.35
2018-02-19T17:20:31.438Z,45.53
2018-02-19T17:22:59.682Z,50.97
2018-02-19T17:25:27.126Z,57.97
2018-02-19T17:27:55.351Z,49.58
2018-02-19T17:30:22.808Z,55.17
2018-02-19T17:32:50.271Z,48.28
2018-02-19T17:35:17.773Z,43.65
2018-02-19T17:37:46.010Z,47.92
2018-02-19T17:40:13.455Z,43.67
2018-02-19T17:42:41.688Z,45.85
2018-02-19T17:45:09.143Z,44.17
2018-02-19T17:47:37.378Z,42.30
2018-02-19T17:50:04.828Z,46.70
2018-02-19T17:52:33.054Z,46.30
2018-02-19T17:55:00.518Z,46.00
2018-02-19T17:57:27.969Z,47.08
2018-02-19T17:59:56.193Z,48.78
2018-02-19T18:02:23.660Z,46.45
2018-02-19T18:04:51.878Z,43.00
2018-02-19T18:07:19.332Z,51.05
2018-02-19T18:09:47.551Z,47.10
2018-02-19T18:12:15.019Z,46.17
2018-02-19T18:14:43.246Z,46.95
2018-02-19T18:17:10.719Z,47.90
2018-02-19T18:19:38.148Z,49.03
2018-02-19T18:22:05.604Z,46.90
2018-02-19T18:24:33.048Z,48.10
2018-02-19T18:27:01.283Z,54.28
2018-02-19T18:29:28.725Z,48.28
2018-02-19T18:31:56.953Z,46.85
2018-02-19T18:34:24.435Z,50.90
2018-02-19T18:36:51.884Z,51.40
2018-02-19T18:39:20.106Z,53.65
2018-02-19T18:41:47.577Z,51.88
2018-02-19T18:44:15.791Z,51.17
2018-02-19T18:46:43.238Z,65.40
2018-02-19T18:49:10.679Z,45.90
2018-02-19T18:51:38.145Z,49.80
2018-02-19T18:54:05.609Z,48.87
2018-02-19T18:56:33.065Z,53.38
2018-02-19T18:59:00.516Z,49.73
2018-02-19T19:01:27.977Z,57.90
2018-02-19T19:03:55.433Z,50.03
2018-02-19T19:06:22.896Z,49.17
2018-02-19T19:09:02.868Z,49.35
2018-02-19T19:11:31.093Z,48.30
2018-02-19T19:13:58.565Z,46.83
2018-02-19T19:16:26.771Z,51.05
2018-02-19T19:18:54.233Z,44.55
2018-02-19T19:21:22.465Z,49.08
2018-02-19T19:23:49.912Z,49.30
2018-02-19T19:26:17.356Z,47.25
2018-02-19T19:28:44.806Z,52.58
2018-02-19T19:31:12.272Z,44.70
2018-02-19T19:33:40.502Z,54.88
2018-02-19T19:36:07.945Z,58.65
2018-02-19T19:38:36.168Z,56.25
2018-02-19T19:41:03.621Z,55.17
2018-02-19T19:43:31.840Z,55.90
2018-02-19T19:46:00.059Z,54.77
2018-02-19T19:48:27.520Z,54.85
2018-02-19T19:50:54.977Z,53.85
2018-02-19T19:53:23.190Z,56.15
2018-02-19T19:55:51.408Z,52.42
2018-02-19T19:58:18.852Z,47.15
2018-02-19T20:00:47.077Z,49.17
2018-02-19T20:03:14.539Z,47.22
2018-02-19T20:05:42.774Z,57.97
2018-02-19T20:08:10.222Z,51.45
2018-02-19T20:10:38.454Z,50.60
2018-02-19T20:13:05.912Z,55.78
2018-02-19T20:15:34.132Z,58.13
2018-02-19T20:18:01.578Z,55.30
2018-02-19T20:20:29.805Z,49.22
2018-02-19T20:22:57.253Z,51.85
2018-02-19T20:25:25.478Z,50.50
2018-02-19T20:27:52.915Z,44.95
2018-02-19T20:30:20.374Z,51.85
2018-02-19T20:32:48.588Z,55.50
2018-02-19T20:35:16.061Z,54.55
2018-02-19T20:37:43.511Z,47.92
2018-02-19T20:40:10.964Z,53.20
2018-02-19T20:42:39.184Z,56.17
2018-02-19T20:45:06.642Z,57.33
2018-02-19T20:47:34.857Z,62.33
2018-02-19T20:50:02.330Z,64.00
2018-02-19T20:52:30.554Z,53.78
2018-02-19T20:54:58.031Z,51.03
2018-02-19T20:57:25.484Z,50.50
2018-02-19T20:59:53.695Z,50.83
2018-02-19T21:02:21.140Z,51.40
2018-02-19T21:04:48.598Z,51.97
2018-02-19T21:07:16.052Z,53.75
2018-02-19T21:09:43.509Z,54.83
2018-02-19T21:12:11.727Z,50.67
2018-02-19T21:14:39.173Z,56.90
2018-02-19T21:17:06.628Z,52.70
2018-02-19T21:19:34.070Z,57.05
2018-02-19T21:22:01.542Z,58.35
2018-02-19T21:24:29.754Z,57.90
2018-02-19T21:26:57.211Z,51.40
2018-02-19T21:29:25.422Z,54.80
2018-02-19T21:31:53.665Z,60.42
2018-02-19T21:34:21.106Z,56.33
2018-02-19T21:36:49.322Z,56.05
2018-02-19T21:39:16.782Z,52.50
2018-02-19T21:41:45.004Z,54.25
2018-02-19T21:44:12.454Z,57.60
2018-02-19T21:46:40.686Z,58.55
2018-02-19T21:49:08.126Z,51.83
2018-02-19T21:51:35.580Z,50.12
2018-02-19T21:54:03.037Z,50.40
2018-02-19T21:56:30.496Z,51.15
2018-02-19T21:58:57.952Z,52.78
2018-02-19T22:01:26.184Z,52.95
2018-02-19T22:03:53.637Z,51.65
2018-02-19T22:06:21.854Z,52.17
2018-02-19T22:08:49.303Z,46.42
2018-02-19T22:11:16.754Z,49.00
2018-02-19T22:13:44.216Z,51.78
2018-02-19T22:16:11.675Z,52.40
2018-02-19T22:18:39.889Z,53.17
2018-02-19T22:21:07.355Z,57.08
2018-02-19T22:23:35.569Z,57.88
2018-02-19T22:26:03.022Z,56.53
2018-02-19T22:28:31.234Z,56.42
2018-02-19T22:30:59.469Z,59.45
2018-02-19T22:33:26.925Z,60.12
2018-02-19T22:35:54.406Z,56.03
2018-02-19T22:38:21.847Z,56.75
2018-02-19T22:40:49.298Z,52.00
2018-02-19T22:43:16.787Z,54.85
2018-02-19T22:45:44.204Z,51.05
2018-02-19T22:48:12.408Z,57.80
2018-02-19T22:50:40.628Z,52.97
2018-02-19T22:53:08.074Z,54.75
2018-02-19T22:55:35.511Z,53.65
2018-02-19T22:58:02.980Z,52.50
2018-02-19T23:00:30.425Z,64.43
2018-02-19T23:02:58.640Z,50.15
2018-02-19T23:05:26.101Z,52.88
2018-02-19T23:07:54.314Z,53.42
2018-02-19T23:10:21.761Z,53.80
2018-02-19T23:12:49.221Z,60.70
2018-02-19T23:15:16.671Z,55.17
2018-02-19T23:17:44.135Z,60.17
2018-02-19T23:20:12.351Z,58.10
2018-02-19T23:22:39.811Z,60.42
2018-02-19T23:25:08.019Z,64.20
2018-02-19T23:27:36.271Z,61.05
2018-02-19T23:30:03.693Z,71.15
2018-02-19T23:32:31.139Z,69.05
2018-02-19T23:35:02.372Z,75.78
2018-02-19T23:37:26.051Z,72.75
2018-02-19T23:39:54.259Z,71.40
2018-02-19T23:42:21.717Z,68.82
2018-02-19T23:44:49.933Z,79.70
2018-02-19T23:47:17.380Z,59.05
2018-02-19T23:49:44.835Z,65.35
2018-02-19T23:52:12.289Z,66.40
2018-02-19T23:54:39.730Z,69.20
2018-02-19T23:57:07.178Z,70.43
2018-02-19T23:59:34.620Z,83.07
